Pelsall, United Kingdom
Current Conditions -  °F | °C
As of 3:50 PM on Thursday 27 Nov 2014 (Local Time) from EGBB Reporting Station
Scattered Clouds Scattered Clouds  
Wind Chill: 42°   Ceiling: Unl
Heat Index: 45°   Visibility: 6mi
Dew Point: 43°   Wind: 5mph
Humidity: 93%   Direction: 130°SE
Pressure: 29.56"   Gusts: NA
Location:  52.63°N, 1.97°W
Report Text: EGBB 271550Z 13004KT 9999 FEW011 SCT017 07/06 Q1001
Loading
Personal Weather Stations






























Interactive Weather Map New forecast layout! Learn more

10-Day Weather Forecast

Advertisements
Track Severe Weather on mobile